sensor_id;sensor_type;location;lat;lon;timestamp;temperature;humidity
28552;DHT22;15752;49.560;8.708;2023-03-01T00:01:46;4.30;91.70
28552;DHT22;15752;49.560;8.708;2023-03-01T00:04:14;4.30;91.60
28552;DHT22;15752;49.560;8.708;2023-03-01T00:06:44;4.30;91.70
28552;DHT22;15752;49.560;8.708;2023-03-01T00:09:13;4.30;91.70
28552;DHT22;15752;49.560;8.708;2023-03-01T00:11:42;4.30;91.80
28552;DHT22;15752;49.560;8.708;2023-03-01T00:14:12;4.30;91.90
28552;DHT22;15752;49.560;8.708;2023-03-01T00:16:44;4.30;92.00
28552;DHT22;15752;49.560;8.708;2023-03-01T00:19:14;4.20;92.00
28552;DHT22;15752;49.560;8.708;2023-03-01T00:21:45;4.20;92.00
28552;DHT22;15752;49.560;8.708;2023-03-01T00:24:14;4.20;92.00
28552;DHT22;15752;49.560;8.708;2023-03-01T00:26:43;4.20;91.90
28552;DHT22;15752;49.560;8.708;2023-03-01T00:29:11;4.20;91.90
28552;DHT22;15752;49.560;8.708;2023-03-01T00:31:39;4.20;91.80
28552;DHT22;15752;49.560;8.708;2023-03-01T00:34:09;4.20;91.70
28552;DHT22;15752;49.560;8.708;2023-03-01T00:36:37;4.20;91.90
28552;DHT22;15752;49.560;8.708;2023-03-01T00:39:11;4.20;91.90
28552;DHT22;15752;49.560;8.708;2023-03-01T00:41:41;4.20;92.10
28552;DHT22;15752;49.560;8.708;2023-03-01T00:44:10;4.20;91.90
28552;DHT22;15752;49.560;8.708;2023-03-01T00:46:39;4.10;92.00
28552;DHT22;15752;49.560;8.708;2023-03-01T00:49:07;4.10;91.80
28552;DHT22;15752;49.560;8.708;2023-03-01T00:51:35;4.40;91.90
28552;DHT22;15752;49.560;8.708;2023-03-01T00:54:04;4.10;91.90
28552;DHT22;15752;49.560;8.708;2023-03-01T00:56:34;4.10;91.90
28552;DHT22;15752;49.560;8.708;2023-03-01T00:59:02;4.10;92.10
28552;DHT22;15752;49.560;8.708;2023-03-01T01:01:31;4.10;91.90
28552;DHT22;15752;49.560;8.708;2023-03-01T01:04:01;4.10;92.00
28552;DHT22;15752;49.560;8.708;2023-03-01T01:06:33;4.10;92.20
28552;DHT22;15752;49.560;8.708;2023-03-01T01:09:04;4.10;92.20
28552;DHT22;15752;49.560;8.708;2023-03-01T01:11:35;4.00;92.10
28552;DHT22;15752;49.560;8.708;2023-03-01T01:14:04;4.00;91.90
28552;DHT22;15752;49.560;8.708;2023-03-01T01:16:32;4.00;91.90
28552;DHT22;15752;49.560;8.708;2023-03-01T01:19:01;4.00;92.10
28552;DHT22;15752;49.560;8.708;2023-03-01T01:21:30;4.10;92.20
28552;DHT22;15752;49.560;8.708;2023-03-01T01:23:59;4.00;92.20
28552;DHT22;15752;49.560;8.708;2023-03-01T01:26:29;4.00;92.00
28552;DHT22;15752;49.560;8.708;2023-03-01T01:29:02;4.00;92.20
28552;DHT22;15752;49.560;8.708;2023-03-01T01:31:31;4.00;92.30
28552;DHT22;15752;49.560;8.708;2023-03-01T01:34:20;4.00;92.20
28552;DHT22;15752;49.560;8.708;2023-03-01T01:36:50;3.90;92.30
28552;DHT22;15752;49.560;8.708;2023-03-01T01:39:20;3.90;92.40
28552;DHT22;15752;49.560;8.708;2023-03-01T01:41:49;3.90;92.30
28552;DHT22;15752;49.560;8.708;2023-03-01T01:44:20;4.10;91.70
28552;DHT22;15752;49.560;8.708;2023-03-01T01:46:53;3.90;92.40
28552;DHT22;15752;49.560;8.708;2023-03-01T01:49:28;3.90;92.50
28552;DHT22;15752;49.560;8.708;2023-03-01T01:52:09;3.90;92.60
28552;DHT22;15752;49.560;8.708;2023-03-01T01:54:43;3.90;92.60
28552;DHT22;15752;49.560;8.708;2023-03-01T01:57:16;4.00;92.70
28552;DHT22;15752;49.560;8.708;2023-03-01T01:59:52;3.90;92.50
28552;DHT22;15752;49.560;8.708;2023-03-01T02:02:22;3.90;92.50
28552;DHT22;15752;49.560;8.708;2023-03-01T02:04:56;3.90;92.40
28552;DHT22;15752;49.560;8.708;2023-03-01T02:07:32;4.00;92.50
28552;DHT22;15752;49.560;8.708;2023-03-01T02:10:02;3.90;92.10
28552;DHT22;15752;49.560;8.708;2023-03-01T02:12:31;3.90;92.30
28552;DHT22;15752;49.560;8.708;2023-03-01T02:15:04;4.20;92.50
28552;DHT22;15752;49.560;8.708;2023-03-01T02:17:33;3.90;92.40
28552;DHT22;15752;49.560;8.708;2023-03-01T02:20:12;4.00;92.50
28552;DHT22;15752;49.560;8.708;2023-03-01T02:22:44;4.00;92.60
28552;DHT22;15752;49.560;8.708;2023-03-01T02:25:24;4.00;92.60
28552;DHT22;15752;49.560;8.708;2023-03-01T02:28:05;4.00;92.60
28552;DHT22;15752;49.560;8.708;2023-03-01T02:30:40;4.00;92.60
28552;DHT22;15752;49.560;8.708;2023-03-01T02:33:30;4.00;92.30
28552;DHT22;15752;49.560;8.708;2023-03-01T02:36:01;4.00;92.60
28552;DHT22;15752;49.560;8.708;2023-03-01T02:38:32;4.00;92.60
28552;DHT22;15752;49.560;8.708;2023-03-01T02:41:02;4.00;92.50
28552;DHT22;15752;49.560;8.708;2023-03-01T02:43:33;4.00;92.50
28552;DHT22;15752;49.560;8.708;2023-03-01T02:46:07;4.00;92.50
28552;DHT22;15752;49.560;8.708;2023-03-01T02:48:43;4.00;92.60
28552;DHT22;15752;49.560;8.708;2023-03-01T02:51:25;4.10;92.70
28552;DHT22;15752;49.560;8.708;2023-03-01T02:54:11;4.00;93.10
28552;DHT22;15752;49.560;8.708;2023-03-01T02:56:44;4.10;92.70
28552;DHT22;15752;49.560;8.708;2023-03-01T02:59:19;4.10;92.50
28552;DHT22;15752;49.560;8.708;2023-03-01T03:01:51;4.10;92.50
28552;DHT22;15752;49.560;8.708;2023-03-01T03:04:20;4.10;92.10
28552;DHT22;15752;49.560;8.708;2023-03-01T03:06:50;4.10;92.40
28552;DHT22;15752;49.560;8.708;2023-03-01T03:09:19;4.10;92.50
28552;DHT22;15752;49.560;8.708;2023-03-01T03:11:47;4.10;92.30
28552;DHT22;15752;49.560;8.708;2023-03-01T03:14:17;4.10;92.40
28552;DHT22;15752;49.560;8.708;2023-03-01T03:16:49;4.20;92.30
28552;DHT22;15752;49.560;8.708;2023-03-01T03:19:19;4.10;92.60
28552;DHT22;15752;49.560;8.708;2023-03-01T03:21:48;4.10;92.50
28552;DHT22;15752;49.560;8.708;2023-03-01T03:24:16;4.10;92.30
28552;DHT22;15752;49.560;8.708;2023-03-01T03:26:45;4.10;92.40
28552;DHT22;15752;49.560;8.708;2023-03-01T03:29:13;4.10;92.20
28552;DHT22;15752;49.560;8.708;2023-03-01T03:31:41;4.30;92.50
28552;DHT22;15752;49.560;8.708;2023-03-01T03:34:11;4.20;92.40
28552;DHT22;15752;49.560;8.708;2023-03-01T03:36:44;4.20;92.60
28552;DHT22;15752;49.560;8.708;2023-03-01T03:39:13;4.30;92.50
28552;DHT22;15752;49.560;8.708;2023-03-01T03:41:41;4.20;92.30
28552;DHT22;15752;49.560;8.708;2023-03-01T03:44:09;4.20;92.50
28552;DHT22;15752;49.560;8.708;2023-03-01T03:46:38;4.20;92.60
28552;DHT22;15752;49.560;8.708;2023-03-01T03:49:06;4.40;92.50
28552;DHT22;15752;49.560;8.708;2023-03-01T03:51:36;4.20;92.40
28552;DHT22;15752;49.560;8.708;2023-03-01T03:54:04;4.20;92.60
28552;DHT22;15752;49.560;8.708;2023-03-01T03:56:33;4.20;92.30
28552;DHT22;15752;49.560;8.708;2023-03-01T03:59:01;4.20;92.40
28552;DHT22;15752;49.560;8.708;2023-03-01T04:01:30;4.20;92.40
28552;DHT22;15752;49.560;8.708;2023-03-01T04:03:58;4.20;92.60
28552;DHT22;15752;49.560;8.708;2023-03-01T04:06:31;4.20;92.70
28552;DHT22;15752;49.560;8.708;2023-03-01T04:09:00;4.20;92.50
28552;DHT22;15752;49.560;8.708;2023-03-01T04:11:29;4.20;92.60
28552;DHT22;15752;49.560;8.708;2023-03-01T04:13:58;4.20;92.50
28552;DHT22;15752;49.560;8.708;2023-03-01T04:16:27;4.20;92.50
28552;DHT22;15752;49.560;8.708;2023-03-01T04:18:56;4.20;92.40
28552;DHT22;15752;49.560;8.708;2023-03-01T04:21:26;4.20;92.80
28552;DHT22;15752;49.560;8.708;2023-03-01T04:23:54;4.20;92.80
28552;DHT22;15752;49.560;8.708;2023-03-01T04:26:24;4.20;92.80
28552;DHT22;15752;49.560;8.708;2023-03-01T04:28:54;4.20;92.80
28552;DHT22;15752;49.560;8.708;2023-03-01T04:31:22;4.20;92.80
28552;DHT22;15752;49.560;8.708;2023-03-01T04:33:52;4.20;92.70
28552;DHT22;15752;49.560;8.708;2023-03-01T04:36:24;4.20;93.00
28552;DHT22;15752;49.560;8.708;2023-03-01T04:38:54;4.30;93.00
28552;DHT22;15752;49.560;8.708;2023-03-01T04:41:25;4.20;92.90
28552;DHT22;15752;49.560;8.708;2023-03-01T04:43:54;4.20;92.80
28552;DHT22;15752;49.560;8.708;2023-03-01T04:46:22;4.20;92.80
28552;DHT22;15752;49.560;8.708;2023-03-01T04:48:52;4.20;92.80
28552;DHT22;15752;49.560;8.708;2023-03-01T04:51:21;4.20;92.90
28552;DHT22;15752;49.560;8.708;2023-03-01T04:53:49;4.20;93.00
28552;DHT22;15752;49.560;8.708;2023-03-01T04:56:17;4.20;93.00
28552;DHT22;15752;49.560;8.708;2023-03-01T04:58:47;4.20;93.00
28552;DHT22;15752;49.560;8.708;2023-03-01T05:01:17;4.20;93.00
28552;DHT22;15752;49.560;8.708;2023-03-01T05:03:48;4.20;93.00
28552;DHT22;15752;49.560;8.708;2023-03-01T05:06:19;4.20;93.00
28552;DHT22;15752;49.560;8.708;2023-03-01T05:08:48;4.30;93.00
28552;DHT22;15752;49.560;8.708;2023-03-01T05:11:17;4.20;93.00
28552;DHT22;15752;49.560;8.708;2023-03-01T05:13:47;4.20;93.00
28552;DHT22;15752;49.560;8.708;2023-03-01T05:16:16;4.20;93.00
28552;DHT22;15752;49.560;8.708;2023-03-01T05:18:46;4.20;92.90
28552;DHT22;15752;49.560;8.708;2023-03-01T05:21:17;4.20;93.00
28552;DHT22;15752;49.560;8.708;2023-03-01T05:23:46;4.30;93.10
28552;DHT22;15752;49.560;8.708;2023-03-01T05:26:15;4.20;93.00
28552;DHT22;15752;49.560;8.708;2023-03-01T05:28:56;4.40;93.10
28552;DHT22;15752;49.560;8.708;2023-03-01T05:31:26;4.20;93.00
28552;DHT22;15752;49.560;8.708;2023-03-01T05:33:55;4.20;93.00
28552;DHT22;15752;49.560;8.708;2023-03-01T05:36:23;4.20;93.00
28552;DHT22;15752;49.560;8.708;2023-03-01T05:38:51;4.20;93.10
28552;DHT22;15752;49.560;8.708;2023-03-01T05:41:20;4.30;93.00
28552;DHT22;15752;49.560;8.708;2023-03-01T05:43:48;4.20;93.00
28552;DHT22;15752;49.560;8.708;2023-03-01T05:46:18;4.20;93.10
28552;DHT22;15752;49.560;8.708;2023-03-01T05:48:47;4.20;93.10
28552;DHT22;15752;49.560;8.708;2023-03-01T05:51:15;4.20;93.00
28552;DHT22;15752;49.560;8.708;2023-03-01T05:53:44;4.20;92.90
28552;DHT22;15752;49.560;8.708;2023-03-01T05:56:13;4.30;92.90
28552;DHT22;15752;49.560;8.708;2023-03-01T05:58:41;4.40;93.00
28552;DHT22;15752;49.560;8.708;2023-03-01T06:01:11;4.20;93.10
28552;DHT22;15752;49.560;8.708;2023-03-01T06:03:42;4.20;93.10
28552;DHT22;15752;49.560;8.708;2023-03-01T06:06:10;4.20;93.20
28552;DHT22;15752;49.560;8.708;2023-03-01T06:08:39;4.20;93.00
28552;DHT22;15752;49.560;8.708;2023-03-01T06:11:07;4.20;93.10
28552;DHT22;15752;49.560;8.708;2023-03-01T06:13:36;4.30;93.20
28552;DHT22;15752;49.560;8.708;2023-03-01T06:16:05;4.20;93.10
28552;DHT22;15752;49.560;8.708;2023-03-01T06:18:34;4.20;93.20
28552;DHT22;15752;49.560;8.708;2023-03-01T06:21:05;4.30;93.20
28552;DHT22;15752;49.560;8.708;2023-03-01T06:23:35;4.20;93.30
28552;DHT22;15752;49.560;8.708;2023-03-01T06:26:06;4.40;93.30
28552;DHT22;15752;49.560;8.708;2023-03-01T06:28:35;4.20;93.40
28552;DHT22;15752;49.560;8.708;2023-03-01T06:31:04;4.20;93.30
28552;DHT22;15752;49.560;8.708;2023-03-01T06:33:35;4.20;93.20
28552;DHT22;15752;49.560;8.708;2023-03-01T06:36:06;4.20;93.30
28552;DHT22;15752;49.560;8.708;2023-03-01T06:38:36;4.20;93.30
28552;DHT22;15752;49.560;8.708;2023-03-01T06:41:07;4.20;93.20
28552;DHT22;15752;49.560;8.708;2023-03-01T06:43:36;4.20;93.20
28552;DHT22;15752;49.560;8.708;2023-03-01T06:46:05;4.30;93.30
28552;DHT22;15752;49.560;8.708;2023-03-01T06:48:34;4.20;93.30
28552;DHT22;15752;49.560;8.708;2023-03-01T06:51:04;4.30;93.70
28552;DHT22;15752;49.560;8.708;2023-03-01T06:53:33;4.30;93.40
28552;DHT22;15752;49.560;8.708;2023-03-01T06:56:01;4.30;93.70
28552;DHT22;15752;49.560;8.708;2023-03-01T06:58:30;4.30;93.30
28552;DHT22;15752;49.560;8.708;2023-03-01T07:00:58;4.30;93.20
28552;DHT22;15752;49.560;8.708;2023-03-01T07:03:26;4.30;93.20
28552;DHT22;15752;49.560;8.708;2023-03-01T07:05:55;4.30;93.10
28552;DHT22;15752;49.560;8.708;2023-03-01T07:08:24;4.30;93.00
28552;DHT22;15752;49.560;8.708;2023-03-01T07:10:55;4.30;93.20
28552;DHT22;15752;49.560;8.708;2023-03-01T07:13:24;4.40;93.30
28552;DHT22;15752;49.560;8.708;2023-03-01T07:15:52;4.30;93.20
28552;DHT22;15752;49.560;8.708;2023-03-01T07:18:21;4.40;93.10
28552;DHT22;15752;49.560;8.708;2023-03-01T07:20:49;4.30;93.20
28552;DHT22;15752;49.560;8.708;2023-03-01T07:23:18;4.30;93.20
28552;DHT22;15752;49.560;8.708;2023-03-01T07:25:52;4.30;93.10
28552;DHT22;15752;49.560;8.708;2023-03-01T07:28:22;4.30;93.10
28552;DHT22;15752;49.560;8.708;2023-03-01T07:30:51;4.30;93.20
28552;DHT22;15752;49.560;8.708;2023-03-01T07:33:20;4.30;93.20
28552;DHT22;15752;49.560;8.708;2023-03-01T07:35:55;4.30;93.30
28552;DHT22;15752;49.560;8.708;2023-03-01T07:38:25;4.30;93.20
28552;DHT22;15752;49.560;8.708;2023-03-01T07:40:57;4.30;93.10
28552;DHT22;15752;49.560;8.708;2023-03-01T07:43:27;4.50;93.20
28552;DHT22;15752;49.560;8.708;2023-03-01T07:45:58;4.50;93.10
28552;DHT22;15752;49.560;8.708;2023-03-01T07:48:28;4.50;93.10
28552;DHT22;15752;49.560;8.708;2023-03-01T07:50:58;4.40;93.10
28552;DHT22;15752;49.560;8.708;2023-03-01T07:53:27;4.40;93.10
28552;DHT22;15752;49.560;8.708;2023-03-01T07:56:03;4.40;93.00
28552;DHT22;15752;49.560;8.708;2023-03-01T07:58:34;4.50;93.10
28552;DHT22;15752;49.560;8.708;2023-03-01T08:01:02;4.50;93.10
28552;DHT22;15752;49.560;8.708;2023-03-01T08:03:31;4.50;93.10
28552;DHT22;15752;49.560;8.708;2023-03-01T08:06:00;4.50;93.10
28552;DHT22;15752;49.560;8.708;2023-03-01T08:08:29;4.60;93.10
28552;DHT22;15752;49.560;8.708;2023-03-01T08:10:58;4.50;93.10
28552;DHT22;15752;49.560;8.708;2023-03-01T08:13:29;4.60;93.10
28552;DHT22;15752;49.560;8.708;2023-03-01T08:16:01;4.60;93.00
28552;DHT22;15752;49.560;8.708;2023-03-01T08:18:31;4.60;93.00
28552;DHT22;15752;49.560;8.708;2023-03-01T08:21:02;4.60;93.00
28552;DHT22;15752;49.560;8.708;2023-03-01T08:23:31;4.60;92.90
28552;DHT22;15752;49.560;8.708;2023-03-01T08:26:04;4.70;92.90
28552;DHT22;15752;49.560;8.708;2023-03-01T08:28:36;4.70;93.00
28552;DHT22;15752;49.560;8.708;2023-03-01T08:31:14;4.70;93.30
28552;DHT22;15752;49.560;8.708;2023-03-01T08:33:43;4.70;93.00
28552;DHT22;15752;49.560;8.708;2023-03-01T08:36:17;4.90;93.00
28552;DHT22;15752;49.560;8.708;2023-03-01T08:38:47;4.80;92.90
28552;DHT22;15752;49.560;8.708;2023-03-01T08:41:16;4.90;92.80
28552;DHT22;15752;49.560;8.708;2023-03-01T08:43:46;4.90;92.80
28552;DHT22;15752;49.560;8.708;2023-03-01T08:46:15;4.90;92.70
28552;DHT22;15752;49.560;8.708;2023-03-01T08:48:43;5.00;92.70
28552;DHT22;15752;49.560;8.708;2023-03-01T08:51:14;5.10;92.80
28552;DHT22;15752;49.560;8.708;2023-03-01T08:53:44;5.00;92.80
28552;DHT22;15752;49.560;8.708;2023-03-01T08:56:13;5.10;92.80
28552;DHT22;15752;49.560;8.708;2023-03-01T08:58:44;5.10;92.60
28552;DHT22;15752;49.560;8.708;2023-03-01T09:01:16;5.10;92.70
28552;DHT22;15752;49.560;8.708;2023-03-01T09:03:45;5.20;92.70
28552;DHT22;15752;49.560;8.708;2023-03-01T09:06:14;5.20;92.60
28552;DHT22;15752;49.560;8.708;2023-03-01T09:08:45;5.30;92.60
28552;DHT22;15752;49.560;8.708;2023-03-01T09:11:18;5.30;92.60
28552;DHT22;15752;49.560;8.708;2023-03-01T09:13:52;5.30;92.60
28552;DHT22;15752;49.560;8.708;2023-03-01T09:16:21;5.40;92.40
28552;DHT22;15752;49.560;8.708;2023-03-01T09:18:51;5.60;92.50
28552;DHT22;15752;49.560;8.708;2023-03-01T09:21:21;5.50;92.50
28552;DHT22;15752;49.560;8.708;2023-03-01T09:24:06;5.50;92.50
28552;DHT22;15752;49.560;8.708;2023-03-01T09:26:36;5.70;92.40
28552;DHT22;15752;49.560;8.708;2023-03-01T09:29:05;5.60;92.30
28552;DHT22;15752;49.560;8.708;2023-03-01T09:31:36;5.70;92.40
28552;DHT22;15752;49.560;8.708;2023-03-01T09:34:05;5.70;92.20
28552;DHT22;15752;49.560;8.708;2023-03-01T09:36:34;5.80;92.30
28552;DHT22;15752;49.560;8.708;2023-03-01T09:39:02;6.00;92.70
28552;DHT22;15752;49.560;8.708;2023-03-01T09:41:45;6.00;92.20
28552;DHT22;15752;49.560;8.708;2023-03-01T09:44:31;6.10;92.30
28552;DHT22;15752;49.560;8.708;2023-03-01T09:47:02;6.00;92.20
28552;DHT22;15752;49.560;8.708;2023-03-01T09:49:33;6.10;92.20
28552;DHT22;15752;49.560;8.708;2023-03-01T09:52:09;6.10;92.10
28552;DHT22;15752;49.560;8.708;2023-03-01T09:54:41;6.10;92.10
28552;DHT22;15752;49.560;8.708;2023-03-01T09:57:18;6.20;92.10
28552;DHT22;15752;49.560;8.708;2023-03-01T10:00:02;6.30;92.00
28552;DHT22;15752;49.560;8.708;2023-03-01T10:02:41;6.40;92.00
28552;DHT22;15752;49.560;8.708;2023-03-01T10:05:27;6.30;91.80
28552;DHT22;15752;49.560;8.708;2023-03-01T10:08:19;6.40;91.90
28552;DHT22;15752;49.560;8.708;2023-03-01T10:10:58;6.40;91.70
28552;DHT22;15752;49.560;8.708;2023-03-01T10:13:32;6.50;91.90
28552;DHT22;15752;49.560;8.708;2023-03-01T10:16:12;6.60;91.80
28552;DHT22;15752;49.560;8.708;2023-03-01T10:18:45;6.60;91.70
28552;DHT22;15752;49.560;8.708;2023-03-01T10:21:16;6.70;91.80
28552;DHT22;15752;49.560;8.708;2023-03-01T10:23:46;6.60;91.70
28552;DHT22;15752;49.560;8.708;2023-03-01T10:26:36;6.70;91.70
28552;DHT22;15752;49.560;8.708;2023-03-01T10:29:10;6.70;91.60
28552;DHT22;15752;49.560;8.708;2023-03-01T10:31:43;6.70;91.60
28552;DHT22;15752;49.560;8.708;2023-03-01T10:34:16;6.80;91.60
28552;DHT22;15752;49.560;8.708;2023-03-01T10:36:49;6.80;91.50
28552;DHT22;15752;49.560;8.708;2023-03-01T10:39:20;6.90;91.50
28552;DHT22;15752;49.560;8.708;2023-03-01T10:41:58;6.90;91.50
28552;DHT22;15752;49.560;8.708;2023-03-01T10:44:40;6.90;91.30
28552;DHT22;15752;49.560;8.708;2023-03-01T10:47:23;7.00;91.30
28552;DHT22;15752;49.560;8.708;2023-03-01T10:49:58;7.00;91.30
28552;DHT22;15752;49.560;8.708;2023-03-01T10:52:30;7.00;91.20
28552;DHT22;15752;49.560;8.708;2023-03-01T10:55:05;7.10;91.20
28552;DHT22;15752;49.560;8.708;2023-03-01T10:58:07;7.10;91.50
28552;DHT22;15752;49.560;8.708;2023-03-01T11:00:47;7.20;91.20
28552;DHT22;15752;49.560;8.708;2023-03-01T11:03:21;7.20;91.30
28552;DHT22;15752;49.560;8.708;2023-03-01T11:05:57;7.30;91.30
28552;DHT22;15752;49.560;8.708;2023-03-01T11:08:36;7.40;91.20
28552;DHT22;15752;49.560;8.708;2023-03-01T11:11:26;7.30;91.10
28552;DHT22;15752;49.560;8.708;2023-03-01T11:14:00;7.40;91.10
28552;DHT22;15752;49.560;8.708;2023-03-01T11:16:58;7.40;91.50
28552;DHT22;15752;49.560;8.708;2023-03-01T11:19:29;7.50;91.10
28552;DHT22;15752;49.560;8.708;2023-03-01T11:22:02;7.50;91.00
28552;DHT22;15752;49.560;8.708;2023-03-01T11:24:37;7.60;90.90
28552;DHT22;15752;49.560;8.708;2023-03-01T11:27:16;7.60;90.90
28552;DHT22;15752;49.560;8.708;2023-03-01T11:29:50;7.60;90.80
28552;DHT22;15752;49.560;8.708;2023-03-01T11:32:25;7.70;90.80
28552;DHT22;15752;49.560;8.708;2023-03-01T11:34:59;7.70;90.80
28552;DHT22;15752;49.560;8.708;2023-03-01T11:37:35;7.70;90.70
28552;DHT22;15752;49.560;8.708;2023-03-01T11:40:13;7.80;91.10
28552;DHT22;15752;49.560;8.708;2023-03-01T11:42:51;7.80;90.70
28552;DHT22;15752;49.560;8.708;2023-03-01T11:45:24;7.90;90.70
28552;DHT22;15752;49.560;8.708;2023-03-01T11:48:05;7.90;90.70
28552;DHT22;15752;49.560;8.708;2023-03-01T11:50:45;7.90;90.40
28552;DHT22;15752;49.560;8.708;2023-03-01T11:53:34;8.00;90.50
28552;DHT22;15752;49.560;8.708;2023-03-01T11:56:21;8.00;90.30
28552;DHT22;15752;49.560;8.708;2023-03-01T11:59:17;8.10;90.40
28552;DHT22;15752;49.560;8.708;2023-03-01T12:02:23;8.10;90.40
28552;DHT22;15752;49.560;8.708;2023-03-01T12:08:18;8.20;90.30
28552;DHT22;15752;49.560;8.708;2023-03-01T12:10:57;8.20;90.40
28552;DHT22;15752;49.560;8.708;2023-03-01T12:13:49;8.30;90.40
28552;DHT22;15752;49.560;8.708;2023-03-01T12:16:37;8.30;90.30
28552;DHT22;15752;49.560;8.708;2023-03-01T12:19:24;8.30;90.30
28552;DHT22;15752;49.560;8.708;2023-03-01T12:22:31;8.50;90.40
28552;DHT22;15752;49.560;8.708;2023-03-01T12:25:27;8.40;90.30
28552;DHT22;15752;49.560;8.708;2023-03-01T12:31:45;8.60;90.20
28552;DHT22;15752;49.560;8.708;2023-03-01T12:34:48;8.50;90.10
28552;DHT22;15752;49.560;8.708;2023-03-01T12:37:32;8.50;90.00
28552;DHT22;15752;49.560;8.708;2023-03-01T12:43:22;8.60;89.90
28552;DHT22;15752;49.560;8.708;2023-03-01T12:46:25;8.70;90.00
28552;DHT22;15752;49.560;8.708;2023-03-01T12:49:07;8.70;89.60
28552;DHT22;15752;49.560;8.708;2023-03-01T12:51:38;8.70;90.00
28552;DHT22;15752;49.560;8.708;2023-03-01T12:54:14;8.80;90.00
28552;DHT22;15752;49.560;8.708;2023-03-01T12:56:46;8.80;89.40
28552;DHT22;15752;49.560;8.708;2023-03-01T12:59:23;8.90;89.40
28552;DHT22;15752;49.560;8.708;2023-03-01T13:02:02;8.90;89.50
28552;DHT22;15752;49.560;8.708;2023-03-01T13:04:45;8.90;88.90
28552;DHT22;15752;49.560;8.708;2023-03-01T13:07:27;8.90;89.10
28552;DHT22;15752;49.560;8.708;2023-03-01T13:10:11;8.90;89.00
28552;DHT22;15752;49.560;8.708;2023-03-01T13:13:00;9.00;88.90
28552;DHT22;15752;49.560;8.708;2023-03-01T13:15:34;9.00;88.80
28552;DHT22;15752;49.560;8.708;2023-03-01T13:18:26;9.00;88.70
28552;DHT22;15752;49.560;8.708;2023-03-01T13:20:58;9.10;88.60
28552;DHT22;15752;49.560;8.708;2023-03-01T13:23:30;9.10;88.60
28552;DHT22;15752;49.560;8.708;2023-03-01T13:26:18;9.10;88.50
28552;DHT22;15752;49.560;8.708;2023-03-01T13:28:53;9.20;88.30
28552;DHT22;15752;49.560;8.708;2023-03-01T13:34:44;9.40;88.30
28552;DHT22;15752;49.560;8.708;2023-03-01T13:37:25;9.30;88.00
28552;DHT22;15752;49.560;8.708;2023-03-01T13:43:30;9.40;88.10
28552;DHT22;15752;49.560;8.708;2023-03-01T13:46:07;9.40;88.00
28552;DHT22;15752;49.560;8.708;2023-03-01T13:48:38;9.60;87.30
28552;DHT22;15752;49.560;8.708;2023-03-01T13:51:08;9.50;87.30
28552;DHT22;15752;49.560;8.708;2023-03-01T13:53:41;9.60;87.50
28552;DHT22;15752;49.560;8.708;2023-03-01T13:56:13;9.60;87.20
28552;DHT22;15752;49.560;8.708;2023-03-01T13:58:47;9.50;87.00
28552;DHT22;15752;49.560;8.708;2023-03-01T14:01:24;9.70;87.20
28552;DHT22;15752;49.560;8.708;2023-03-01T14:03:55;9.60;87.00
28552;DHT22;15752;49.560;8.708;2023-03-01T14:06:25;9.60;88.00
28552;DHT22;15752;49.560;8.708;2023-03-01T14:09:03;9.80;86.80
28552;DHT22;15752;49.560;8.708;2023-03-01T14:14:48;9.70;86.20
28552;DHT22;15752;49.560;8.708;2023-03-01T14:20:18;9.80;85.90
28552;DHT22;15752;49.560;8.708;2023-03-01T14:22:50;9.80;86.10
28552;DHT22;15752;49.560;8.708;2023-03-01T14:25:23;9.80;86.00
28552;DHT22;15752;49.560;8.708;2023-03-01T14:28:03;9.90;85.90
28552;DHT22;15752;49.560;8.708;2023-03-01T14:30:35;9.80;85.30
28552;DHT22;15752;49.560;8.708;2023-03-01T14:33:20;9.90;85.30
28552;DHT22;15752;49.560;8.708;2023-03-01T14:35:57;9.90;85.20
28552;DHT22;15752;49.560;8.708;2023-03-01T14:38:32;9.90;85.40
28552;DHT22;15752;49.560;8.708;2023-03-01T14:41:05;10.10;85.20
28552;DHT22;15752;49.560;8.708;2023-03-01T14:43:37;9.90;85.50
28552;DHT22;15752;49.560;8.708;2023-03-01T14:46:06;10.00;84.90
28552;DHT22;15752;49.560;8.708;2023-03-01T14:48:35;10.10;85.30
28552;DHT22;15752;49.560;8.708;2023-03-01T14:51:05;10.00;84.70
28552;DHT22;15752;49.560;8.708;2023-03-01T14:53:34;10.00;84.70
28552;DHT22;15752;49.560;8.708;2023-03-01T14:56:17;10.00;85.10
28552;DHT22;15752;49.560;8.708;2023-03-01T14:58:51;10.00;84.90
28552;DHT22;15752;49.560;8.708;2023-03-01T15:01:21;10.00;84.40
28552;DHT22;15752;49.560;8.708;2023-03-01T15:03:51;10.10;84.80
28552;DHT22;15752;49.560;8.708;2023-03-01T15:06:22;10.10;84.40
28552;DHT22;15752;49.560;8.708;2023-03-01T15:08:53;10.10;84.20
28552;DHT22;15752;49.560;8.708;2023-03-01T15:11:26;10.10;84.10
28552;DHT22;15752;49.560;8.708;2023-03-01T15:13:56;10.10;85.20
28552;DHT22;15752;49.560;8.708;2023-03-01T15:16:27;10.10;84.30
28552;DHT22;15752;49.560;8.708;2023-03-01T15:19:00;10.10;83.80
28552;DHT22;15752;49.560;8.708;2023-03-01T15:21:32;10.10;83.30
28552;DHT22;15752;49.560;8.708;2023-03-01T15:24:07;10.10;83.50
28552;DHT22;15752;49.560;8.708;2023-03-01T15:26:51;10.10;83.00
28552;DHT22;15752;49.560;8.708;2023-03-01T15:29:23;10.20;83.90
28552;DHT22;15752;49.560;8.708;2023-03-01T15:31:59;10.20;83.20
28552;DHT22;15752;49.560;8.708;2023-03-01T15:34:34;10.20;83.10
28552;DHT22;15752;49.560;8.708;2023-03-01T15:37:06;10.20;82.90
28552;DHT22;15752;49.560;8.708;2023-03-01T15:40:19;10.20;83.20
28552;DHT22;15752;49.560;8.708;2023-03-01T15:42:51;10.20;82.90
28552;DHT22;15752;49.560;8.708;2023-03-01T15:45:23;10.20;83.00
28552;DHT22;15752;49.560;8.708;2023-03-01T15:47:55;10.20;83.10
28552;DHT22;15752;49.560;8.708;2023-03-01T15:50:29;10.20;82.80
28552;DHT22;15752;49.560;8.708;2023-03-01T15:53:00;10.20;82.30
28552;DHT22;15752;49.560;8.708;2023-03-01T15:55:30;10.20;82.80
28552;DHT22;15752;49.560;8.708;2023-03-01T15:58:01;10.20;82.30
28552;DHT22;15752;49.560;8.708;2023-03-01T16:00:31;10.40;82.50
28552;DHT22;15752;49.560;8.708;2023-03-01T16:03:00;10.20;82.30
28552;DHT22;15752;49.560;8.708;2023-03-01T16:05:31;10.40;82.60
28552;DHT22;15752;49.560;8.708;2023-03-01T16:08:03;10.20;82.00
28552;DHT22;15752;49.560;8.708;2023-03-01T16:10:32;10.20;82.10
28552;DHT22;15752;49.560;8.708;2023-03-01T16:13:02;10.20;82.00
28552;DHT22;15752;49.560;8.708;2023-03-01T16:15:32;10.30;82.00
28552;DHT22;15752;49.560;8.708;2023-03-01T16:18:02;10.20;81.40
28552;DHT22;15752;49.560;8.708;2023-03-01T16:20:33;10.20;81.70
28552;DHT22;15752;49.560;8.708;2023-03-01T16:23:04;10.20;80.90
28552;DHT22;15752;49.560;8.708;2023-03-01T16:25:34;10.50;82.00
28552;DHT22;15752;49.560;8.708;2023-03-01T16:28:03;10.20;81.50
28552;DHT22;15752;49.560;8.708;2023-03-01T16:30:36;10.20;81.30
28552;DHT22;15752;49.560;8.708;2023-03-01T16:33:06;10.20;81.60
28552;DHT22;15752;49.560;8.708;2023-03-01T16:35:57;10.20;82.60
28552;DHT22;15752;49.560;8.708;2023-03-01T16:38:27;10.10;81.20
28552;DHT22;15752;49.560;8.708;2023-03-01T16:40:55;10.10;81.30
28552;DHT22;15752;49.560;8.708;2023-03-01T16:43:24;10.10;81.90
28552;DHT22;15752;49.560;8.708;2023-03-01T16:45:52;10.20;81.20